createdAt,value
2019-05-07T07:28:32.902Z,8.57
2019-05-07T07:31:23.375Z,8.88
2019-05-07T07:33:53.344Z,8.75
2019-05-07T07:36:24.259Z,8.89
2019-05-07T07:38:53.480Z,8.89
2019-05-07T07:41:29.579Z,9.10
2019-05-07T07:44:02.078Z,9.09
2019-05-07T07:46:33.048Z,9.80
2019-05-07T07:49:10.731Z,10.01
2019-05-07T07:51:41.476Z,9.97
2019-05-07T07:54:03.832Z,9.76
2019-05-07T07:56:50.153Z,9.70
2019-05-07T07:59:28.070Z,9.73
2019-05-07T08:02:04.101Z,9.96
2019-05-07T08:04:33.264Z,10.12
2019-05-07T08:07:05.476Z,10.30
2019-05-07T08:09:35.561Z,10.54
2019-05-07T08:12:05.979Z,10.50
2019-05-07T08:14:35.241Z,10.99
2019-05-07T08:17:07.996Z,11.43
2019-05-07T08:19:37.218Z,11.14
2019-05-07T08:22:06.364Z,11.52
2019-05-07T08:24:35.537Z,11.49
2019-05-07T08:27:04.746Z,11.40
2019-05-07T08:29:33.918Z,11.25
2019-05-07T08:32:28.454Z,11.38
2019-05-07T08:35:14.282Z,11.47
2019-05-07T08:37:43.542Z,11.79
2019-05-07T08:40:12.991Z,11.91
2019-05-07T08:42:42.192Z,11.89
2019-05-07T08:45:28.927Z,12.33
2019-05-07T08:48:02.076Z,12.39
2019-05-07T08:50:32.659Z,11.85
2019-05-07T08:53:02.755Z,11.67
2019-05-07T08:55:32.342Z,11.79
2019-05-07T08:58:02.231Z,11.63
2019-05-07T09:00:32.555Z,11.22
2019-05-07T09:03:01.922Z,11.93
2019-05-07T09:05:32.948Z,12.10
2019-05-07T09:08:02.370Z,11.88
2019-05-07T09:10:32.451Z,11.50
2019-05-07T09:13:03.154Z,11.62
2019-05-07T09:15:32.396Z,11.55
2019-05-07T09:18:02.120Z,11.48
2019-05-07T09:20:32.221Z,11.14
2019-05-07T09:23:02.156Z,10.76
2019-05-07T09:25:33.646Z,11.69
2019-05-07T09:28:03.722Z,11.92
2019-05-07T09:31:03.777Z,11.67
2019-05-07T09:33:52.228Z,12.12
2019-05-07T09:36:26.853Z,12.47
2019-05-07T09:38:59.018Z,12.78
2019-05-07T09:41:29.734Z,13.20
2019-05-07T09:43:59.125Z,13.27
2019-05-07T09:46:28.302Z,13.35
2019-05-07T09:48:57.850Z,12.34
2019-05-07T09:51:27.030Z,13.24
2019-05-07T09:53:56.224Z,13.68
2019-05-07T09:56:25.363Z,13.99
2019-05-07T09:58:54.516Z,13.31
2019-05-07T10:01:23.796Z,13.27
2019-05-07T10:03:53.067Z,13.03
2019-05-07T10:06:22.937Z,13.24
2019-05-07T10:08:52.431Z,13.42
2019-05-07T10:11:32.919Z,14.15
2019-05-07T10:14:06.000Z,13.45
2019-05-07T10:16:52.386Z,13.61
2019-05-07T10:19:22.251Z,13.45
2019-05-07T10:21:52.930Z,13.61
2019-05-07T10:24:22.351Z,13.27
2019-05-07T10:26:53.066Z,13.75
2019-05-07T10:29:22.793Z,14.23
2019-05-07T10:31:52.755Z,14.28
2019-05-07T10:34:22.840Z,14.66
2019-05-07T10:36:52.411Z,14.56
2019-05-07T10:39:22.086Z,14.18
2019-05-07T10:41:51.276Z,13.81
2019-05-07T10:44:22.915Z,13.68
2019-05-07T10:47:09.660Z,13.80
2019-05-07T10:49:49.510Z,13.46
2019-05-07T10:52:18.685Z,12.87
2019-05-07T10:54:59.520Z,13.46
2019-05-07T10:57:18.774Z,13.78
2019-05-07T10:59:48.060Z,14.27
2019-05-07T11:02:22.359Z,13.89
2019-05-07T11:04:53.226Z,13.55
2019-05-07T11:07:22.479Z,13.26
2019-05-07T11:09:52.494Z,13.91
2019-05-07T11:12:22.907Z,13.66
2019-05-07T11:14:52.333Z,13.54
2019-05-07T11:17:49.274Z,12.88
2019-05-07T11:20:19.455Z,12.87
2019-05-07T11:22:52.042Z,13.60
2019-05-07T11:25:22.535Z,13.83
2019-05-07T11:27:52.382Z,13.95
2019-05-07T11:30:22.814Z,14.01
2019-05-07T11:32:52.403Z,14.09
2019-05-07T11:35:24.717Z,13.96
2019-05-07T11:37:54.027Z,13.91
2019-05-07T11:40:23.621Z,14.19
2019-05-07T11:43:12.902Z,14.33
2019-05-07T11:45:54.350Z,14.41
2019-05-07T11:48:24.474Z,14.37
2019-05-07T11:51:04.373Z,14.31
2019-05-07T11:53:33.630Z,14.37
2019-05-07T11:56:02.885Z,14.19
2019-05-07T11:58:32.654Z,14.25
2019-05-07T12:01:12.306Z,14.41
2019-05-07T12:03:42.948Z,14.60
2019-05-07T12:06:12.512Z,14.66
2019-05-07T12:08:49.793Z,15.42
2019-05-07T12:11:13.031Z,15.64
2019-05-07T12:13:42.753Z,15.03
2019-05-07T12:16:14.163Z,15.50
2019-05-07T12:18:43.223Z,15.62
2019-05-07T12:21:20.133Z,16.05
2019-05-07T12:23:43.361Z,15.64
2019-05-07T12:26:12.738Z,15.59
2019-05-07T12:28:42.034Z,15.24
2019-05-07T12:31:48.339Z,15.48
2019-05-07T12:34:22.912Z,14.70
2019-05-07T12:36:52.486Z,14.82
2019-05-07T12:39:22.024Z,14.26
2019-05-07T12:41:52.430Z,14.23
2019-05-07T12:44:22.215Z,14.56
2019-05-07T12:46:52.467Z,15.26
2019-05-07T12:49:22.208Z,15.64
2019-05-07T12:51:56.778Z,15.81
2019-05-07T12:54:44.897Z,15.92
2019-05-07T12:57:14.038Z,16.42
2019-05-07T12:59:43.235Z,16.58
2019-05-07T13:02:37.380Z,16.26
2019-05-07T13:04:58.054Z,16.22
2019-05-07T13:07:44.317Z,16.45
2019-05-07T13:10:13.565Z,16.23
2019-05-07T13:12:42.742Z,15.64
2019-05-07T13:15:24.102Z,15.79
2019-05-07T13:17:43.053Z,15.81
2019-05-07T13:20:12.393Z,15.31
2019-05-07T13:22:42.679Z,14.80
2019-05-07T13:25:12.871Z,15.24
2019-05-07T13:27:42.943Z,15.22
2019-05-07T13:30:14.352Z,15.31
2019-05-07T13:32:46.632Z,15.59
2019-05-07T13:35:16.087Z,16.59
2019-05-07T13:38:07.851Z,17.10
2019-05-07T13:40:55.162Z,17.90
2019-05-07T13:43:29.406Z,19.35
2019-05-07T13:46:03.078Z,20.93
2019-05-07T13:48:32.347Z,20.75
2019-05-07T13:51:02.161Z,19.38
2019-05-07T13:53:32.138Z,19.91
2019-05-07T13:56:02.198Z,21.08
2019-05-07T13:58:32.933Z,19.68
2019-05-07T14:01:27.559Z,18.86
2019-05-07T14:03:56.895Z,18.76
2019-05-07T14:06:43.036Z,19.14
2019-05-07T14:09:23.875Z,18.15
2019-05-07T14:11:52.861Z,17.68
2019-05-07T14:14:22.582Z,17.30
2019-05-07T14:16:53.013Z,16.55
2019-05-07T14:19:22.733Z,16.82
2019-05-07T14:21:52.526Z,16.33
2019-05-07T14:24:22.579Z,16.13
2019-05-07T14:26:52.838Z,15.19
2019-05-07T14:29:24.700Z,15.34
2019-05-07T14:32:18.207Z,15.26
2019-05-07T14:35:05.494Z,14.57
2019-05-07T14:37:38.064Z,15.16
2019-05-07T14:40:07.571Z,15.20
2019-05-07T14:42:42.144Z,15.47
2019-05-07T14:45:11.457Z,14.43
2019-05-07T14:47:44.402Z,15.04
2019-05-07T14:50:12.329Z,15.08
2019-05-07T14:52:43.253Z,14.99
2019-05-07T14:55:12.975Z,15.27
2019-05-07T14:57:42.291Z,15.30
2019-05-07T15:00:12.345Z,14.92
2019-05-07T15:02:42.108Z,14.74
2019-05-07T15:05:12.138Z,14.97
2019-05-07T15:07:41.608Z,14.77
2019-05-07T15:10:10.871Z,14.74
2019-05-07T15:12:40.044Z,14.86
2019-05-07T15:15:09.445Z,14.75
2019-05-07T15:18:09.836Z,14.62
2019-05-07T15:20:39.211Z,14.71
2019-05-07T15:23:27.323Z,14.14
2019-05-07T15:25:57.062Z,14.46
2019-05-07T15:28:26.261Z,14.80
2019-05-07T15:31:04.919Z,15.07
2019-05-07T15:33:34.086Z,15.10
2019-05-07T15:36:06.412Z,15.49
2019-05-07T15:38:34.464Z,15.93
2019-05-07T15:41:03.782Z,17.36
2019-05-07T15:43:32.977Z,18.27
2019-05-07T15:46:02.451Z,19.60
2019-05-07T15:48:32.618Z,20.39
2019-05-07T15:51:02.542Z,19.67
2019-05-07T15:53:55.681Z,19.54
2019-05-07T15:56:23.958Z,19.62
2019-05-07T15:58:52.207Z,20.83
2019-05-07T16:01:22.180Z,21.10
2019-05-07T16:03:54.392Z,20.90
2019-05-07T16:06:22.019Z,19.58
2019-05-07T16:08:53.598Z,18.02
2019-05-07T16:11:23.237Z,17.49
2019-05-07T16:14:12.610Z,17.32
2019-05-07T16:16:45.730Z,16.71
2019-05-07T16:20:53.624Z,15.49
2019-05-07T16:23:22.962Z,15.67
2019-05-07T16:25:52.831Z,15.09
2019-05-07T16:28:22.104Z,15.39
2019-05-07T16:30:52.138Z,15.37
2019-05-07T16:33:21.468Z,15.02
2019-05-07T16:35:50.750Z,15.11
2019-05-07T16:38:21.996Z,15.21
2019-05-07T16:40:52.195Z,15.69
2019-05-07T16:43:22.110Z,15.42
2019-05-07T16:45:51.840Z,15.84
2019-05-07T16:48:23.127Z,15.74
2019-05-07T16:50:52.326Z,15.75
2019-05-07T16:53:29.299Z,15.23
2019-05-07T16:55:52.699Z,15.01
2019-05-07T16:58:38.402Z,14.98
2019-05-07T17:01:09.127Z,14.78
2019-05-07T17:03:45.810Z,14.48
2019-05-07T17:06:14.987Z,14.25
2019-05-07T17:08:55.170Z,14.32
2019-05-07T17:11:24.350Z,14.14
2019-05-07T17:13:53.537Z,13.59
2019-05-07T17:16:22.965Z,13.67
2019-05-07T17:18:52.176Z,13.43
2019-05-07T17:21:21.852Z,13.49
2019-05-07T17:23:51.884Z,13.27
2019-05-07T17:26:23.184Z,13.20
2019-05-07T17:28:52.229Z,13.13
2019-05-07T17:31:22.891Z,13.04
2019-05-07T17:33:52.148Z,12.98
2019-05-07T17:36:22.403Z,12.97
2019-05-07T17:38:52.013Z,13.04
2019-05-07T17:41:26.840Z,13.01
2019-05-07T17:43:52.338Z,13.00
2019-05-07T17:46:21.886Z,13.01
2019-05-07T17:48:52.366Z,12.97
2019-05-07T17:51:42.090Z,12.89
2019-05-07T17:54:13.158Z,12.85
2019-05-07T17:56:42.994Z,12.80
2019-05-07T17:59:12.484Z,12.86
2019-05-07T18:02:02.676Z,12.78
2019-05-07T18:04:47.667Z,12.70
2019-05-07T18:07:05.184Z,12.53
2019-05-07T18:09:34.388Z,12.52
2019-05-07T18:12:03.820Z,12.42
2019-05-07T18:14:33.114Z,12.45
2019-05-07T18:17:14.320Z,12.33
2019-05-07T18:19:44.298Z,12.29
2019-05-07T18:22:13.647Z,12.40
2019-05-07T18:24:42.893Z,12.28
2019-05-07T18:27:18.570Z,12.36
2019-05-07T18:29:47.791Z,12.07
2019-05-07T18:32:17.052Z,11.97
2019-05-07T18:34:46.335Z,12.03
2019-05-07T18:37:15.623Z,11.71
2019-05-07T18:39:44.830Z,11.79
2019-05-07T18:42:14.142Z,11.57
2019-05-07T18:44:43.386Z,11.57
2019-05-07T18:47:13.000Z,11.59
2019-05-07T18:49:44.725Z,11.30
2019-05-07T18:52:13.341Z,11.10
2019-05-07T18:54:42.965Z,11.10
2019-05-07T18:57:12.291Z,11.06
2019-05-07T18:59:42.283Z,11.14
2019-05-07T19:02:11.938Z,11.05
2019-05-07T19:04:42.219Z,10.94
2019-05-07T19:07:13.210Z,10.86
2019-05-07T19:09:42.659Z,10.85
2019-05-07T19:12:13.470Z,10.90
2019-05-07T19:14:42.894Z,10.84
2019-05-07T19:17:12.294Z,10.79
2019-05-07T19:19:41.959Z,10.84
2019-05-07T19:22:13.587Z,10.66
2019-05-07T19:24:47.874Z,10.60
2019-05-07T19:27:15.789Z,10.51
2019-05-07T19:29:45.922Z,10.47
2019-05-07T19:32:15.999Z,10.52
2019-05-07T19:34:45.254Z,10.53
2019-05-07T19:37:14.619Z,10.53
2019-05-07T19:39:44.263Z,10.51
2019-05-07T19:42:16.134Z,10.51
2019-05-07T19:44:47.702Z,10.49
2019-05-07T19:47:17.576Z,10.42
2019-05-07T19:49:47.966Z,10.32
2019-05-07T19:52:18.091Z,10.28
2019-05-07T19:54:58.884Z,10.27
2019-05-07T19:57:23.383Z,10.33
2019-05-07T19:59:55.168Z,10.20
2019-05-07T20:02:32.001Z,10.16
2019-05-07T20:05:03.524Z,10.05
2019-05-07T20:07:33.101Z,10.03
2019-05-07T20:10:06.490Z,9.99
2019-05-07T20:12:38.657Z,9.90
2019-05-07T20:15:08.435Z,9.87
2019-05-07T20:17:37.772Z,9.82
2019-05-07T20:20:09.874Z,9.90
2019-05-07T20:22:39.317Z,9.75
2019-05-07T20:25:18.573Z,9.64
2019-05-07T20:27:43.175Z,9.59
2019-05-07T20:30:12.819Z,9.49
2019-05-07T20:32:42.797Z,9.45
2019-05-07T20:35:12.321Z,9.39
2019-05-07T20:37:42.109Z,9.37
2019-05-07T20:40:13.648Z,9.36
2019-05-07T20:42:42.964Z,9.36
2019-05-07T20:45:13.453Z,9.30
2019-05-07T20:47:43.070Z,9.24
2019-05-07T20:50:12.871Z,9.16
2019-05-07T20:52:42.139Z,9.11
2019-05-07T20:55:30.632Z,9.12
2019-05-07T20:57:54.309Z,9.00
2019-05-07T21:00:26.429Z,8.90
2019-05-07T21:03:13.699Z,8.86
2019-05-07T21:05:42.971Z,8.83
2019-05-07T21:08:12.259Z,8.73
2019-05-07T21:10:42.742Z,8.69
2019-05-07T21:13:26.999Z,8.66
2019-05-07T21:15:42.924Z,8.66
2019-05-07T21:18:13.206Z,8.57
2019-05-07T21:20:42.475Z,8.50
2019-05-07T21:23:12.338Z,8.44
2019-05-07T21:25:45.764Z,8.40
2019-05-07T21:28:12.649Z,8.25
2019-05-07T21:30:42.702Z,8.23
2019-05-07T21:33:12.155Z,8.14
2019-05-07T21:35:42.944Z,7.85
2019-05-07T21:38:12.785Z,7.72
2019-05-07T21:40:42.825Z,7.70
2019-05-07T21:43:14.149Z,7.53
2019-05-07T21:45:43.190Z,7.35
2019-05-07T21:48:13.763Z,7.14
2019-05-07T21:50:43.338Z,7.05
2019-05-07T21:53:22.883Z,6.94
2019-05-07T21:56:05.280Z,6.83
2019-05-07T21:58:43.712Z,6.77
2019-05-07T22:01:16.654Z,6.73
2019-05-07T22:03:47.734Z,6.66
2019-05-07T22:06:16.970Z,6.61
2019-05-07T22:08:46.111Z,6.45
2019-05-07T22:11:15.413Z,6.46
2019-05-07T22:13:44.596Z,6.28
2019-05-07T22:16:13.749Z,6.23
2019-05-07T22:18:43.023Z,6.20
2019-05-07T22:21:12.647Z,6.18
2019-05-07T22:23:42.779Z,6.08
2019-05-07T22:26:23.311Z,5.97
2019-05-07T22:28:43.240Z,5.96
2019-05-07T22:31:31.374Z,5.99
2019-05-07T22:34:12.941Z,5.99
2019-05-07T22:36:43.137Z,5.70
2019-05-07T22:39:12.702Z,5.74
2019-05-07T22:41:42.542Z,5.54
2019-05-07T22:44:12.134Z,5.38
2019-05-07T22:46:42.189Z,5.31
2019-05-07T22:49:12.261Z,5.35
2019-05-07T22:51:41.612Z,5.31
2019-05-07T22:54:11.858Z,5.28
2019-05-07T22:57:04.146Z,5.13
2019-05-07T22:59:33.323Z,5.13
2019-05-07T23:02:03.242Z,5.03
2019-05-07T23:04:33.846Z,4.98
2019-05-07T23:07:04.116Z,4.96
2019-05-07T23:09:33.394Z,4.99
2019-05-07T23:12:02.643Z,4.95
2019-05-07T23:14:32.984Z,4.76
2019-05-07T23:17:02.401Z,4.78
2019-05-07T23:19:32.705Z,4.98
2019-05-07T23:22:03.253Z,5.01
2019-05-07T23:24:32.473Z,4.97
2019-05-07T23:27:01.723Z,4.84
2019-05-07T23:29:33.006Z,4.76
2019-05-07T23:32:02.114Z,4.80
2019-05-07T23:34:32.594Z,4.73
2019-05-07T23:37:02.540Z,4.85
2019-05-07T23:39:33.888Z,4.77
2019-05-07T23:42:09.740Z,4.68
2019-05-07T23:44:38.944Z,4.70
2019-05-07T23:47:08.314Z,4.67
2019-05-07T23:49:37.510Z,4.64
2019-05-07T23:52:06.709Z,4.79
2019-05-07T23:54:36.022Z,4.70
2019-05-07T23:57:09.511Z,4.69
2019-05-07T23:59:36.120Z,4.68
